CGPZO -KASE
Flight info
| Callsign | CGPZO |
|---|---|
| Flight time | N/A |
| Altitude | VFR |
| Route | |
| Aircraft | PA34/L-VGD/C |
Departure
| Time | N/A |
|---|---|
| Airport | - |
Arrival
| Time | 2026-04-22 00:11 |
|---|---|
| Airport | Aspen-Pitkin County Airport (Sardy Field) (KASE) |
| Time | Latitude | Longitude | Altitude | Speed | Heading |
|---|---|---|---|---|---|
| 2026-04-22 00:01 | 39.11355 | -106.57498 | 14545 ft | 148 kts | 312° |
| 2026-04-22 00:01 | 39.11960 | -106.58546 | 14551 ft | 143 kts | 296° |
| 2026-04-22 00:01 | 39.12186 | -106.59749 | 14609 ft | 135 kts | 277° |
| 2026-04-22 00:01 | 39.12223 | -106.60992 | 14487 ft | 145 kts | 268° |
| 2026-04-22 00:02 | 39.12088 | -106.62328 | 14254 ft | 156 kts | 263° |
| 2026-04-22 00:02 | 39.12018 | -106.63720 | 14083 ft | 158 kts | 270° |
| 2026-04-22 00:02 | 39.12121 | -106.65137 | 13777 ft | 162 kts | 279° |
| 2026-04-22 00:02 | 39.12181 | -106.66592 | 13462 ft | 163 kts | 270° |
| 2026-04-22 00:03 | 39.12156 | -106.68030 | 13322 ft | 154 kts | 272° |
| 2026-04-22 00:03 | 39.12244 | -106.69366 | 13205 ft | 148 kts | 279° |
| 2026-04-22 00:03 | 39.12433 | -106.70676 | 13160 ft | 147 kts | 284° |
| 2026-04-22 00:03 | 39.12664 | -106.71983 | 13006 ft | 154 kts | 282° |
| 2026-04-22 00:04 | 39.12964 | -106.73345 | 12811 ft | 161 kts | 291° |
| 2026-04-22 00:04 | 39.13472 | -106.74656 | 12530 ft | 166 kts | 302° |
| 2026-04-22 00:04 | 39.14235 | -106.75689 | 12421 ft | 155 kts | 316° |
| 2026-04-22 00:04 | 39.15051 | -106.76560 | 12247 ft | 146 kts | 316° |
| 2026-04-22 00:05 | 39.15815 | -106.77362 | 12082 ft | 140 kts | 318° |
| 2026-04-22 00:05 | 39.16555 | -106.78216 | 11848 ft | 146 kts | 315° |
| 2026-04-22 00:05 | 39.17247 | -106.79173 | 11580 ft | 148 kts | 307° |
| 2026-04-22 00:05 | 39.17955 | -106.80114 | 11416 ft | 144 kts | 314° |
| 2026-04-22 00:06 | 39.18694 | -106.80978 | 11220 ft | 145 kts | 316° |
| 2026-04-22 00:06 | 39.19419 | -106.81918 | 10860 ft | 153 kts | 310° |
| 2026-04-22 00:06 | 39.20242 | -106.82787 | 10687 ft | 150 kts | 328° |
| 2026-04-22 00:06 | 39.21211 | -106.83168 | 10626 ft | 146 kts | 345° |
| 2026-04-22 00:07 | 39.22206 | -106.83388 | 10548 ft | 142 kts | 342° |
| 2026-04-22 00:07 | 39.23107 | -106.83739 | 10515 ft | 131 kts | 338° |
| 2026-04-22 00:07 | 39.23961 | -106.84142 | 10390 ft | 127 kts | 333° |
| 2026-04-22 00:07 | 39.24762 | -106.84566 | 10117 ft | 126 kts | 330° |
| 2026-04-22 00:08 | 39.25644 | -106.84982 | 9507 ft | 143 kts | 341° |
| 2026-04-22 00:08 | 39.26574 | -106.85249 | 9305 ft | 128 kts | 345° |
| 2026-04-22 00:08 | 39.27274 | -106.85786 | 8994 ft | 120 kts | 294° |
| 2026-04-22 00:08 | 39.27225 | -106.86779 | 8818 ft | 107 kts | 248° |
| 2026-04-22 00:09 | 39.26940 | -106.87656 | 8469 ft | 103 kts | 240° |
| 2026-04-22 00:09 | 39.26408 | -106.88206 | 8120 ft | 96 kts | 197° |
| 2026-04-22 00:09 | 39.25766 | -106.88099 | 7996 ft | 91 kts | 184° |
| 2026-04-22 00:09 | 39.25117 | -106.88032 | 7969 ft | 95 kts | 182° |
| 2026-04-22 00:10 | 39.24463 | -106.87873 | 7936 ft | 98 kts | 171° |
| 2026-04-22 00:10 | 39.23797 | -106.87571 | 7815 ft | 99 kts | 172° |
| 2026-04-22 00:10 | 39.23166 | -106.87273 | 7752 ft | 92 kts | 168° |
| 2026-04-22 00:10 | 39.22638 | -106.87041 | 7762 ft | 65 kts | 161° |
| 2026-04-22 00:11 | 39.22321 | -106.86889 | 7786 ft | 32 kts | 161° |
| 2026-04-22 00:11 | 39.22102 | -106.86784 | 7807 ft | 34 kts | 161° |
| 2026-04-22 00:11 | 39.22031 | -106.86658 | 7814 ft | 17 kts | 84° |
| 2026-04-22 00:11 | 39.21966 | -106.86594 | 7820 ft | 12 kts | 159° |
| 2026-04-22 00:12 | 39.21819 | -106.86524 | 7832 ft | 29 kts | 159° |
| 2026-04-22 00:12 | 39.21657 | -106.86448 | 7845 ft | 20 kts | 159° |
| 2026-04-22 00:12 | 39.21520 | -106.86382 | 7853 ft | 23 kts | 160° |
| 2026-04-22 00:12 | 39.21398 | -106.86324 | 7861 ft | 19 kts | 159° |
| 2026-04-22 00:13 | 39.21344 | -106.86298 | 7864 ft | 1 kts | 160° |
| 2026-04-22 00:13 | 39.21304 | -106.86279 | 7866 ft | 10 kts | 161° |
| 2026-04-22 00:13 | 39.21274 | -106.86265 | 7867 ft | 0 kts | 160° |
| 2026-04-22 00:17 | 39.21272 | -106.86264 | 7867 ft | 2 kts | 160° |
| 2026-04-22 00:17 | 39.21209 | -106.86247 | 7869 ft | 10 kts | 198° |
| 2026-04-22 00:17 | 39.21172 | -106.86319 | 7874 ft | 10 kts | 264° |
| 2026-04-22 00:17 | 39.21194 | -106.86352 | 7874 ft | 0 kts | 339° |
| 2026-04-22 00:18 | 39.21219 | -106.86363 | 7873 ft | 26 kts | 339° |
| 2026-04-22 00:18 | 39.21679 | -106.86579 | 7864 ft | 101 kts | 337° |
| 2026-04-22 00:18 | 39.22432 | -106.86805 | 8115 ft | 120 kts | 351° |
| 2026-04-22 00:19 | 39.23293 | -106.86842 | 8466 ft | 124 kts | 356° |
| 2026-04-22 00:19 | 39.24133 | -106.86849 | 8931 ft | 121 kts | 356° |
| 2026-04-22 00:19 | 39.24984 | -106.86914 | 9318 ft | 121 kts | 345° |
| 2026-04-22 00:19 | 39.25771 | -106.87337 | 9495 ft | 137 kts | 327° |
| 2026-04-22 00:20 | 39.26633 | -106.88116 | 9333 ft | 158 kts | 317° |
| 2026-04-22 00:20 | 39.27441 | -106.89033 | 9512 ft | 150 kts | 313° |
| 2026-04-22 00:20 | 39.28204 | -106.89922 | 9693 ft | 146 kts | 321° |
| 2026-04-22 00:20 | 39.29119 | -106.90421 | 9914 ft | 144 kts | 343° |
| 2026-04-22 00:21 | 39.30090 | -106.90678 | 10156 ft | 140 kts | 347° |
| 2026-04-22 00:21 | 39.31010 | -106.90890 | 10466 ft | 130 kts | 344° |